createdAt,value
2022-09-23T00:00:07.200Z,16.24
2022-09-23T00:02:37.219Z,16.27
2022-09-23T00:05:07.821Z,16.34
2022-09-23T00:07:39.920Z,16.37
2022-09-23T00:10:13.103Z,16.41
2022-09-23T00:12:43.082Z,16.46
2022-09-23T00:15:14.463Z,16.51
2022-09-23T00:17:46.120Z,16.56
2022-09-23T00:20:16.080Z,16.63
2022-09-23T00:22:46.690Z,16.67
2022-09-23T00:25:16.823Z,16.73
2022-09-23T00:27:47.995Z,16.70
2022-09-23T00:30:19.694Z,16.79
2022-09-23T00:32:49.917Z,16.83
2022-09-23T00:35:20.150Z,16.91
2022-09-23T00:37:49.648Z,16.96
2022-09-23T00:40:19.915Z,17.01
2022-09-23T00:42:53.303Z,17.08
2022-09-23T00:45:23.873Z,17.09
2022-09-23T00:47:59.113Z,17.16
2022-09-23T00:50:46.039Z,17.26
2022-09-23T00:53:21.204Z,17.33
2022-09-23T00:55:59.403Z,17.38
2022-09-23T00:58:34.788Z,17.48
2022-09-23T01:01:06.027Z,17.46
2022-09-23T01:03:37.223Z,17.53
2022-09-23T01:06:08.408Z,17.62
2022-09-23T01:08:40.321Z,17.67
2022-09-23T01:11:32.919Z,17.78
2022-09-23T01:14:22.136Z,17.80
2022-09-23T01:17:26.986Z,17.94
2022-09-23T01:20:08.127Z,17.98
2022-09-23T01:22:38.391Z,18.12
2022-09-23T01:25:35.217Z,18.26
2022-09-23T01:28:14.453Z,18.30
2022-09-23T01:31:26.822Z,18.43
2022-09-23T01:34:08.908Z,18.49
2022-09-23T01:36:40.680Z,18.58
2022-09-23T01:39:36.333Z,18.72
2022-09-23T01:42:53.025Z,18.83
2022-09-23T01:45:30.840Z,18.92
2022-09-23T01:48:26.863Z,19.00
2022-09-23T01:51:20.666Z,19.08
2022-09-23T01:54:19.766Z,19.19
2022-09-23T01:57:09.872Z,19.27
2022-09-23T01:59:49.806Z,19.37
2022-09-23T02:02:31.074Z,19.46
2022-09-23T02:05:29.466Z,19.58
2022-09-23T02:08:17.931Z,19.64
2022-09-23T02:11:16.718Z,19.76
2022-09-23T02:14:04.973Z,19.77
2022-09-23T02:17:00.054Z,19.92
2022-09-23T02:19:46.839Z,19.99
2022-09-23T02:22:52.192Z,20.05
2022-09-23T02:25:28.975Z,20.05
2022-09-23T02:28:10.553Z,20.15
2022-09-23T02:30:54.246Z,20.21
2022-09-23T02:33:41.362Z,20.28
2022-09-23T02:36:27.467Z,20.36
2022-09-23T02:39:03.806Z,20.41
2022-09-23T02:41:59.103Z,20.47
2022-09-23T02:44:30.152Z,20.46
2022-09-23T02:47:00.575Z,20.55
2022-09-23T02:49:32.700Z,20.64
2022-09-23T02:52:06.099Z,20.67
2022-09-23T02:54:39.089Z,20.71
2022-09-23T02:57:11.598Z,20.79
2022-09-23T02:59:43.465Z,20.84
2022-09-23T03:02:35.019Z,20.89
2022-09-23T03:05:17.307Z,20.92
2022-09-23T03:08:12.503Z,20.92
2022-09-23T03:10:57.323Z,20.92
2022-09-23T03:13:36.471Z,21.01
2022-09-23T03:16:31.393Z,21.03
2022-09-23T03:19:27.223Z,21.09
2022-09-23T03:22:07.024Z,21.13
2022-09-23T03:24:42.636Z,21.15
2022-09-23T03:27:22.090Z,21.16
2022-09-23T03:29:55.745Z,21.16
2022-09-23T03:32:30.312Z,21.17
2022-09-23T03:35:03.057Z,21.24
2022-09-23T03:38:04.781Z,21.30
2022-09-23T03:40:49.043Z,21.36
2022-09-23T03:43:20.261Z,21.37
2022-09-23T03:45:51.051Z,21.41
2022-09-23T03:48:22.876Z,21.45
2022-09-23T03:50:53.250Z,21.49
2022-09-23T03:53:23.973Z,21.52
2022-09-23T03:55:54.186Z,21.59
2022-09-23T03:58:24.266Z,21.62
2022-09-23T04:00:56.125Z,21.63
2022-09-23T04:03:29.489Z,21.67
2022-09-23T04:05:59.953Z,21.72
2022-09-23T04:08:30.896Z,21.76
2022-09-23T04:11:06.044Z,21.75
2022-09-23T04:13:36.594Z,21.79
2022-09-23T04:16:06.866Z,21.85
2022-09-23T04:18:39.236Z,21.88
2022-09-23T04:21:12.950Z,21.93
2022-09-23T04:23:47.526Z,21.97
2022-09-23T04:26:18.210Z,21.99
2022-09-23T04:28:48.354Z,22.06
2022-09-23T04:31:18.529Z,22.07
2022-09-23T04:33:49.150Z,22.11
2022-09-23T04:36:22.673Z,22.16
2022-09-23T04:38:53.341Z,22.21
2022-09-23T04:41:24.087Z,22.26
2022-09-23T04:43:55.164Z,22.30
2022-09-23T04:46:26.905Z,22.37
2022-09-23T04:48:57.911Z,22.42
2022-09-23T04:51:32.515Z,22.46
2022-09-23T04:54:03.088Z,22.48
2022-09-23T04:56:34.387Z,22.52
2022-09-23T04:59:05.562Z,22.58
2022-09-23T05:01:37.790Z,22.59
2022-09-23T05:04:14.873Z,22.62
2022-09-23T05:06:46.825Z,22.62
2022-09-23T05:09:20.988Z,22.66
2022-09-23T05:11:51.352Z,22.64
2022-09-23T05:14:21.823Z,22.71
2022-09-23T05:16:52.834Z,22.72
2022-09-23T05:19:23.186Z,22.71
2022-09-23T05:21:54.640Z,22.80
2022-09-23T05:24:26.338Z,22.81
2022-09-23T05:26:57.451Z,22.85
2022-09-23T05:29:27.621Z,22.88
2022-09-23T05:31:57.920Z,22.94
2022-09-23T05:34:28.163Z,22.96
2022-09-23T05:36:59.665Z,23.02
2022-09-23T05:39:30.348Z,23.07
2022-09-23T05:42:01.499Z,23.14
2022-09-23T05:44:31.663Z,23.15
2022-09-23T05:47:03.298Z,23.16
2022-09-23T05:49:57.966Z,23.20
2022-09-23T05:52:25.353Z,23.24
2022-09-23T05:54:55.667Z,23.28
2022-09-23T05:57:26.004Z,23.35
2022-09-23T05:59:56.265Z,23.42
2022-09-23T06:02:27.729Z,23.46
2022-09-23T06:04:57.957Z,23.47
2022-09-23T06:07:28.655Z,23.53
2022-09-23T06:09:59.726Z,23.55
2022-09-23T06:12:30.666Z,23.58
2022-09-23T06:15:02.406Z,23.61
2022-09-23T06:17:33.060Z,23.67
2022-09-23T06:20:03.665Z,23.70
2022-09-23T06:22:37.150Z,23.75
2022-09-23T06:25:10.669Z,23.84
2022-09-23T06:27:41.190Z,23.86
2022-09-23T06:30:11.924Z,23.89
2022-09-23T06:32:42.452Z,23.95
2022-09-23T06:35:25.228Z,23.98
2022-09-23T06:37:59.274Z,24.06
2022-09-23T06:40:29.894Z,24.11
2022-09-23T06:43:04.496Z,24.18
2022-09-23T06:45:34.678Z,24.22
2022-09-23T06:48:06.459Z,24.26
2022-09-23T06:50:37.914Z,24.32
2022-09-23T06:53:08.671Z,24.33
2022-09-23T06:55:38.675Z,24.35
2022-09-23T06:58:10.353Z,24.39
2022-09-23T07:00:41.254Z,24.43
2022-09-23T07:03:11.891Z,24.44
2022-09-23T07:05:42.953Z,24.45
2022-09-23T07:08:13.411Z,24.53
2022-09-23T07:10:43.428Z,24.55
2022-09-23T07:13:16.320Z,24.58
2022-09-23T07:15:59.580Z,24.58
2022-09-23T07:18:36.448Z,24.59
2022-09-23T07:21:18.833Z,24.58
2022-09-23T07:23:52.797Z,24.56
2022-09-23T07:26:24.100Z,24.63
2022-09-23T07:29:06.527Z,24.65
2022-09-23T07:31:39.989Z,24.66
2022-09-23T07:34:12.807Z,24.69
2022-09-23T07:36:43.804Z,24.75
2022-09-23T07:39:15.234Z,24.75
2022-09-23T07:41:47.133Z,24.79
2022-09-23T07:44:17.674Z,24.82
2022-09-23T07:46:47.719Z,24.84
2022-09-23T07:49:19.602Z,24.84
2022-09-23T07:51:50.232Z,24.88
2022-09-23T07:54:20.058Z,24.89
2022-09-23T07:56:50.676Z,24.94
2022-09-23T07:59:21.268Z,24.97
2022-09-23T08:01:57.307Z,24.98
2022-09-23T08:04:33.077Z,25.00
2022-09-23T08:07:06.065Z,24.98
2022-09-23T08:09:43.280Z,24.97
2022-09-23T08:12:17.301Z,24.95
2022-09-23T08:14:48.021Z,24.91
2022-09-23T08:17:18.469Z,24.92
2022-09-23T08:19:48.792Z,24.92
2022-09-23T08:22:18.968Z,24.93
2022-09-23T08:24:49.679Z,24.92
2022-09-23T08:27:20.731Z,24.94
2022-09-23T08:29:50.887Z,24.95
2022-09-23T08:32:21.055Z,24.90
2022-09-23T08:34:51.717Z,24.87
2022-09-23T08:37:21.985Z,24.88
2022-09-23T08:39:52.755Z,24.84
2022-09-23T08:42:33.901Z,24.84
2022-09-23T08:45:08.711Z,24.79
2022-09-23T08:47:52.174Z,24.74
2022-09-23T08:50:24.695Z,24.71
2022-09-23T08:53:00.135Z,24.65
2022-09-23T08:55:57.469Z,24.63
2022-09-23T08:58:27.909Z,24.56
2022-09-23T09:01:49.925Z,24.52
2022-09-23T09:04:31.431Z,24.39
2022-09-23T09:07:31.752Z,24.36
2022-09-23T09:10:28.139Z,24.30
2022-09-23T09:13:32.802Z,24.24
2022-09-23T09:16:58.875Z,24.16
2022-09-23T09:19:57.196Z,24.08
2022-09-23T09:22:45.395Z,23.99
2022-09-23T09:25:35.588Z,23.91
2022-09-23T09:28:15.867Z,23.85
2022-09-23T09:30:48.724Z,23.77
2022-09-23T09:33:22.636Z,23.71
2022-09-23T09:36:10.886Z,23.67
2022-09-23T09:38:40.899Z,23.61
2022-09-23T09:41:19.553Z,23.57
2022-09-23T09:43:54.828Z,23.50
2022-09-23T09:46:47.263Z,23.44
2022-09-23T09:49:45.601Z,23.37
2022-09-23T09:52:27.758Z,23.32
2022-09-23T09:55:21.589Z,23.25
2022-09-23T09:58:05.476Z,23.16
2022-09-23T10:00:44.004Z,23.08
2022-09-23T10:03:17.175Z,22.99
2022-09-23T10:05:47.825Z,22.89
2022-09-23T10:08:34.900Z,22.78
2022-09-23T10:11:20.680Z,22.68
2022-09-23T10:14:14.052Z,22.58
2022-09-23T10:16:44.292Z,22.49
2022-09-23T10:19:29.256Z,22.40
2022-09-23T10:22:02.789Z,22.32
2022-09-23T10:24:37.614Z,22.27
2022-09-23T10:27:16.027Z,22.22
2022-09-23T10:29:49.048Z,22.17
2022-09-23T10:32:30.650Z,22.11
2022-09-23T10:35:15.772Z,22.03
2022-09-23T10:37:51.164Z,21.96
2022-09-23T10:40:44.197Z,21.90
2022-09-23T10:43:56.528Z,21.84
2022-09-23T10:46:40.175Z,21.73
2022-09-23T10:49:42.225Z,21.63
2022-09-23T10:52:18.389Z,21.53
2022-09-23T10:54:48.413Z,21.45
2022-09-23T10:57:46.139Z,21.37
2022-09-23T11:00:53.028Z,21.28
2022-09-23T11:03:50.143Z,21.21
2022-09-23T11:06:43.135Z,21.10
2022-09-23T11:09:50.673Z,21.03
2022-09-23T11:12:20.809Z,20.94
2022-09-23T11:15:40.459Z,20.87
2022-09-23T11:18:52.996Z,20.77
2022-09-23T11:21:48.337Z,20.63
2022-09-23T11:24:30.102Z,20.50
2022-09-23T11:27:27.831Z,20.38
2022-09-23T11:30:10.483Z,20.27
2022-09-23T11:36:06.606Z,20.14
2022-09-23T11:38:43.035Z,20.09
2022-09-23T11:41:35.467Z,20.04
2022-09-23T11:44:12.781Z,20.00
2022-09-23T11:47:00.160Z,19.91
2022-09-23T11:49:55.477Z,19.82
2022-09-23T11:52:46.289Z,19.78
2022-09-23T11:55:22.905Z,19.70
2022-09-23T11:58:24.659Z,19.65
2022-09-23T12:01:37.197Z,19.62
2022-09-23T12:04:53.232Z,19.57
2022-09-23T12:08:04.702Z,19.47
2022-09-23T12:10:43.613Z,19.41
2022-09-23T12:13:30.689Z,19.33
2022-09-23T12:16:17.030Z,19.25
2022-09-23T12:19:06.673Z,19.19
2022-09-23T12:21:54.934Z,19.10
2022-09-23T12:24:25.983Z,19.07
2022-09-23T12:27:04.272Z,19.04
2022-09-23T12:29:38.223Z,19.03
2022-09-23T12:32:11.320Z,19.01
2022-09-23T12:34:50.220Z,18.95
2022-09-23T12:37:40.056Z,18.86
2022-09-23T12:40:32.349Z,18.79
2022-09-23T12:43:04.126Z,18.73
2022-09-23T12:45:36.085Z,18.70
2022-09-23T12:48:28.766Z,18.65
2022-09-23T12:51:06.593Z,18.60
2022-09-23T12:53:36.986Z,18.58
2022-09-23T12:56:26.540Z,18.55
2022-09-23T12:59:01.958Z,18.54
2022-09-23T13:01:39.576Z,18.49
2022-09-23T13:04:54.495Z,18.45
2022-09-23T13:07:42.633Z,18.41
2022-09-23T13:10:35.279Z,18.32
2022-09-23T13:13:09.351Z,18.24
2022-09-23T13:15:40.026Z,18.16
2022-09-23T13:18:24.456Z,18.15
2022-09-23T13:20:57.948Z,18.10
2022-09-23T13:23:30.474Z,18.04
2022-09-23T13:26:04.220Z,17.98
2022-09-23T13:28:41.781Z,17.95
2022-09-23T13:31:18.707Z,17.88
2022-09-23T13:34:01.466Z,17.81
2022-09-23T13:36:31.596Z,17.73
2022-09-23T13:39:27.612Z,17.71
2022-09-23T13:42:05.710Z,17.67
2022-09-23T13:44:43.396Z,17.67
2022-09-23T13:47:17.374Z,17.65
2022-09-23T13:49:49.569Z,17.62
2022-09-23T13:52:33.920Z,17.59
2022-09-23T13:55:09.114Z,17.54
2022-09-23T13:57:48.528Z,17.47
2022-09-23T14:00:26.661Z,17.41
2022-09-23T14:03:08.653Z,17.40
2022-09-23T14:05:41.147Z,17.38
2022-09-23T14:08:11.503Z,17.33
2022-09-23T14:10:46.300Z,17.32
2022-09-23T14:13:26.965Z,17.27
2022-09-23T14:16:00.701Z,17.19
2022-09-23T14:18:51.032Z,17.13
2022-09-23T14:21:42.087Z,17.02
2022-09-23T14:24:20.390Z,16.92
2022-09-23T14:27:09.305Z,16.87
2022-09-23T14:29:42.664Z,16.83
2022-09-23T14:32:22.598Z,16.78
2022-09-23T14:35:06.372Z,16.75
2022-09-23T14:37:57.479Z,16.74
2022-09-23T14:40:34.653Z,16.74
2022-09-23T14:43:19.835Z,16.73
2022-09-23T14:45:54.660Z,16.75
2022-09-23T14:48:30.033Z,16.76
2022-09-23T14:51:02.846Z,16.77
2022-09-23T14:53:37.862Z,16.78
2022-09-23T14:56:10.949Z,16.77
2022-09-23T14:59:02.619Z,16.79
2022-09-23T15:01:40.212Z,16.76
2022-09-23T15:04:18.633Z,16.72
2022-09-23T15:07:01.064Z,16.64
2022-09-23T15:09:41.467Z,16.57
2022-09-23T15:12:22.188Z,16.49
2022-09-23T15:14:57.037Z,16.47
2022-09-23T15:17:35.122Z,16.45
2022-09-23T15:20:10.211Z,16.38
2022-09-23T15:22:50.121Z,16.37
2022-09-23T15:25:35.481Z,16.37
2022-09-23T15:28:11.835Z,16.33
2022-09-23T15:30:44.625Z,16.25
2022-09-23T15:33:18.145Z,16.24
2022-09-23T15:35:50.371Z,16.23
2022-09-23T15:38:20.859Z,16.20
2022-09-23T15:40:52.576Z,16.16
2022-09-23T15:43:32.172Z,16.12
2022-09-23T15:46:10.495Z,16.06
2022-09-23T15:48:45.147Z,16.04
2022-09-23T15:51:17.548Z,16.00
2022-09-23T15:53:52.116Z,15.89
2022-09-23T15:56:22.614Z,15.81
2022-09-23T15:58:53.594Z,15.76
2022-09-23T16:01:31.412Z,15.70
2022-09-23T16:04:03.104Z,15.64
2022-09-23T16:06:34.181Z,15.59
2022-09-23T16:09:05.246Z,15.49
2022-09-23T16:11:40.007Z,15.46
2022-09-23T16:14:17.979Z,15.39
2022-09-23T16:16:49.281Z,15.33
2022-09-23T16:19:19.807Z,15.26
2022-09-23T16:21:50.310Z,15.23
2022-09-23T16:24:25.949Z,15.17
2022-09-23T16:27:01.215Z,15.11
2022-09-23T16:29:33.892Z,15.04
2022-09-23T16:32:04.528Z,15.06
2022-09-23T16:34:36.234Z,15.02
2022-09-23T16:37:11.844Z,14.96
2022-09-23T16:39:42.888Z,14.96
2022-09-23T16:42:13.921Z,14.94
2022-09-23T16:44:45.192Z,14.97
2022-09-23T16:47:19.705Z,15.02
2022-09-23T16:49:50.378Z,15.03
2022-09-23T16:52:20.869Z,15.03
2022-09-23T16:54:51.076Z,15.01
2022-09-23T16:57:21.554Z,15.00
2022-09-23T17:00:08.836Z,15.00
2022-09-23T17:02:57.105Z,14.91
2022-09-23T17:05:28.773Z,14.82
2022-09-23T17:07:59.063Z,14.78
2022-09-23T17:10:29.975Z,14.74
2022-09-23T17:13:00.140Z,14.70
2022-09-23T17:15:30.426Z,14.68
2022-09-23T17:18:00.621Z,14.61
2022-09-23T17:20:30.895Z,14.61
2022-09-23T17:23:01.324Z,14.59
2022-09-23T17:25:31.776Z,14.56
2022-09-23T17:28:02.802Z,14.50
2022-09-23T17:30:33.696Z,14.44
2022-09-23T17:33:03.827Z,14.35
2022-09-23T17:35:34.076Z,14.28
2022-09-23T17:38:04.089Z,14.22
2022-09-23T17:40:34.331Z,14.20
2022-09-23T17:43:04.390Z,14.16
2022-09-23T17:45:34.765Z,14.08
2022-09-23T17:48:05.365Z,13.99
2022-09-23T17:50:34.732Z,13.98
2022-09-23T17:53:07.070Z,13.95
2022-09-23T17:55:37.219Z,13.96
2022-09-23T17:58:07.485Z,13.90
2022-09-23T18:00:37.715Z,13.85
2022-09-23T18:03:07.848Z,13.83
2022-09-23T18:05:37.817Z,13.82
2022-09-23T18:08:07.808Z,13.80
2022-09-23T18:10:39.138Z,13.75
2022-09-23T18:13:09.087Z,13.72
2022-09-23T18:15:41.562Z,13.68
2022-09-23T18:18:11.555Z,13.63
2022-09-23T18:20:41.797Z,13.59
2022-09-23T18:23:13.330Z,13.56
2022-09-23T18:25:43.532Z,13.53
2022-09-23T18:28:13.700Z,13.47
2022-09-23T18:30:53.719Z,13.45
2022-09-23T18:33:25.127Z,13.42
2022-09-23T18:35:55.171Z,13.42
2022-09-23T18:38:25.324Z,13.46
2022-09-23T18:41:01.088Z,13.45
2022-09-23T18:43:40.526Z,13.47
2022-09-23T18:46:22.717Z,13.48
2022-09-23T18:49:14.085Z,13.43
2022-09-23T18:51:58.438Z,13.44
2022-09-23T18:54:30.707Z,13.45
2022-09-23T18:57:00.987Z,13.45
2022-09-23T18:59:33.021Z,13.41
2022-09-23T19:02:03.447Z,13.36
2022-09-23T19:04:33.901Z,13.31
2022-09-23T19:07:04.365Z,13.26
2022-09-23T19:09:34.960Z,13.26
2022-09-23T19:12:06.036Z,13.25
2022-09-23T19:14:36.191Z,13.23
2022-09-23T19:17:06.573Z,13.21
2022-09-23T19:19:36.651Z,13.22
2022-09-23T19:22:06.827Z,13.19
2022-09-23T19:24:38.005Z,13.22
2022-09-23T19:27:08.780Z,13.18
2022-09-23T19:29:40.527Z,13.17
2022-09-23T19:32:12.409Z,13.16
2022-09-23T19:34:42.744Z,13.18
2022-09-23T19:37:13.762Z,13.17
2022-09-23T19:39:44.442Z,13.18
2022-09-23T19:42:15.119Z,13.17
2022-09-23T19:44:45.868Z,13.16
2022-09-23T19:47:18.878Z,13.17
2022-09-23T19:49:50.391Z,13.13
2022-09-23T19:52:20.784Z,13.10
2022-09-23T19:54:50.986Z,13.09
2022-09-23T19:57:22.017Z,13.02
2022-09-23T19:59:52.780Z,12.96
2022-09-23T20:02:22.962Z,12.88
2022-09-23T20:04:54.193Z,12.85
2022-09-23T20:07:24.479Z,12.84
2022-09-23T20:09:57.590Z,12.83
2022-09-23T20:12:27.944Z,12.81
2022-09-23T20:14:58.887Z,12.74
2022-09-23T20:17:31.896Z,12.68
2022-09-23T20:20:02.895Z,12.64
2022-09-23T20:22:35.532Z,12.58
2022-09-23T20:25:07.264Z,12.59
2022-09-23T20:27:37.841Z,12.58
2022-09-23T20:30:09.929Z,12.53
2022-09-23T20:32:44.517Z,12.49
2022-09-23T20:35:17.614Z,12.47
2022-09-23T20:37:47.362Z,12.44
2022-09-23T20:40:18.240Z,12.37
2022-09-23T20:42:50.337Z,12.37
2022-09-23T20:45:20.570Z,12.34
2022-09-23T20:47:51.286Z,12.29
2022-09-23T20:50:21.863Z,12.26
2022-09-23T20:52:54.549Z,12.19
2022-09-23T20:55:28.298Z,12.15
2022-09-23T20:57:58.880Z,12.13
2022-09-23T21:00:29.053Z,12.08
2022-09-23T21:03:00.179Z,12.02
2022-09-23T21:05:31.871Z,11.97
2022-09-23T21:08:03.349Z,11.93
2022-09-23T21:10:34.602Z,11.91
2022-09-23T21:13:08.440Z,11.89
2022-09-23T21:15:39.381Z,11.89
2022-09-23T21:18:14.305Z,11.92
2022-09-23T21:20:54.918Z,11.92
2022-09-23T21:23:37.069Z,11.95
2022-09-23T21:26:09.755Z,11.93
2022-09-23T21:28:42.979Z,11.88
2022-09-23T21:31:19.007Z,11.89
2022-09-23T21:33:50.339Z,11.87
2022-09-23T21:36:20.839Z,11.84
2022-09-23T21:38:52.258Z,11.80
2022-09-23T21:41:23.101Z,11.76
2022-09-23T21:43:53.614Z,11.75
2022-09-23T21:46:24.283Z,11.70
2022-09-23T21:48:57.198Z,11.71
2022-09-23T21:51:38.353Z,11.64
2022-09-23T21:54:18.411Z,11.60
2022-09-23T21:56:48.656Z,11.54
2022-09-23T21:59:18.774Z,11.54
2022-09-23T22:01:54.145Z,11.51
2022-09-23T22:04:25.196Z,11.48
2022-09-23T22:06:55.887Z,11.50
2022-09-23T22:09:26.069Z,11.48
2022-09-23T22:12:14.058Z,11.46
2022-09-23T22:14:44.702Z,11.45
2022-09-23T22:17:16.930Z,11.49
2022-09-23T22:19:48.790Z,11.49
2022-09-23T22:22:20.765Z,11.52
2022-09-23T22:24:51.601Z,11.51
2022-09-23T22:27:22.834Z,11.53
2022-09-23T22:30:11.252Z,11.51
2022-09-23T22:32:54.343Z,11.50
2022-09-23T22:35:25.905Z,11.50
2022-09-23T22:37:57.595Z,11.55
2022-09-23T22:40:28.577Z,11.59
2022-09-23T22:42:59.037Z,11.63
2022-09-23T22:45:29.393Z,11.65
2022-09-23T22:48:00.515Z,11.69
2022-09-23T22:50:31.510Z,11.73
2022-09-23T22:53:03.139Z,11.78
2022-09-23T22:55:33.659Z,11.81
2022-09-23T22:58:21.238Z,11.93
2022-09-23T23:00:58.633Z,12.01
2022-09-23T23:03:29.461Z,12.09
2022-09-23T23:06:03.410Z,12.16
2022-09-23T23:08:35.047Z,12.25
2022-09-23T23:11:14.056Z,12.35
2022-09-23T23:13:44.985Z,12.44
2022-09-23T23:16:15.425Z,12.53
2022-09-23T23:18:46.724Z,12.62
2022-09-23T23:21:19.522Z,12.72
2022-09-23T23:23:52.771Z,12.78
2022-09-23T23:26:26.356Z,12.87
2022-09-23T23:28:58.155Z,12.97
2022-09-23T23:31:28.739Z,13.07
2022-09-23T23:33:59.778Z,13.15
2022-09-23T23:36:32.009Z,13.23
2022-09-23T23:39:04.073Z,13.35
2022-09-23T23:41:35.293Z,13.46
2022-09-23T23:44:05.653Z,13.56
2022-09-23T23:46:36.722Z,13.66
2022-09-23T23:49:08.003Z,13.78
2022-09-23T23:51:38.282Z,13.90
2022-09-23T23:54:08.571Z,13.99
2022-09-23T23:56:38.890Z,14.10
2022-09-23T23:59:09.133Z,14.21
